Time;durP1;ratioP1;P1;durP2;ratioP2;P2;SDS_P1;SDS_P2;PMS_P1;PMS_P2;Temp;Humidity;BMP_temperature;BMP_pressure;BME280_temperature;BME280_humidity;BME280_pressure;Samples;Min_cycle;Max_cycle;Signal;HPM_P1;HPM_P2
2021/07/17 00:00:31;;;;;;;;;;;;;;;22.05;63.02;100144.34;2075993;28;20403;-69
2021/07/17 00:01:32;;;;;;;;;;;;;;;22.05;62.93;100144.34;2075386;28;20434;-69
2021/07/17 00:02:33;;;;;;;;;;;;;;;22.05;62.77;100130.63;2076456;28;19928;-70
2021/07/17 00:03:33;;;;;;;;;;;;;;;22.05;62.87;100138.84;2073771;28;20071;-69
2021/07/17 00:04:33;;;;;;;;;;;;;;;22.05;62.78;100141.59;2076004;28;19994;-69
2021/07/17 00:05:34;;;;;;;;;;;;;;;22.04;62.82;100137.97;2077097;28;20226;-70
2021/07/17 00:06:34;;;;;;;;;;;;;;;22.04;62.96;100134.38;2075613;28;19963;-69
2021/07/17 00:07:34;;;;;;;;;;;;;;;22.04;62.81;100140.72;2076844;28;19917;-69
2021/07/17 00:08:35;;;;;;;;;;;;;;;22.04;62.94;100140.72;2075545;28;20003;-69
2021/07/17 00:09:35;;;;;;;;;;;;;;;22.05;62.79;100138.84;2074806;28;19916;-69
2021/07/17 00:10:40;;;;;;;;;;;;;;;22.04;62.89;100137.13;2076495;28;20915;-69
2021/07/17 00:11:40;;;;;;;;;;;;;;;22.04;62.79;100142.63;2069462;28;19917;-69
2021/07/17 00:12:41;;;;;;;;;;;;;;;22.04;62.79;100142.63;2068509;28;19955;-70
2021/07/17 00:13:41;;;;;;;;;;;;;;;22.05;62.83;100144.34;2073860;28;19971;-69
2021/07/17 00:14:42;;;;;;;;;;;;;;;22.05;62.79;100144.34;2072906;28;19928;-69
2021/07/17 00:15:42;;;;;;;;;;;;;;;22.04;62.99;100143.47;2076556;28;19952;-69
2021/07/17 00:16:43;;;;;;;;;;;;;;;22.04;62.82;100145.34;2074447;28;19928;-69
2021/07/17 00:17:44;;;;;;;;;;;;;;;22.05;62.92;100141.59;2076729;28;19917;-70
2021/07/17 00:18:44;;;;;;;;;;;;;;;22.05;62.69;100144.34;2072138;28;19938;-69
2021/07/17 00:19:45;;;;;;;;;;;;;;;22.05;62.69;100144.34;2070559;28;19928;-69
2021/07/17 00:20:45;;;;;;;;;;;;;;;22.04;62.87;100145.34;2076026;28;19920;-69
2021/07/17 00:21:46;;;;;;;;;;;;;;;22.05;62.82;100149.84;2076309;28;19928;-69
2021/07/17 00:22:46;;;;;;;;;;;;;;;22.04;62.78;100148.09;2075285;28;19917;-70
2021/07/17 00:23:46;;;;;;;;;;;;;;;22.04;62.86;100148.09;2075990;28;19917;-69
2021/07/17 00:24:47;;;;;;;;;;;;;;;22.03;62.82;100141.75;2075186;28;19956;-70
2021/07/17 00:25:49;;;;;;;;;;;;;;;22.03;62.82;100144.50;2077458;28;20375;-70
2021/07/17 00:26:49;;;;;;;;;;;;;;;22.04;62.88;100142.63;2076319;28;20610;-70
2021/07/17 00:27:50;;;;;;;;;;;;;;;22.04;62.93;100153.59;2077109;28;19912;-69
2021/07/17 00:28:50;;;;;;;;;;;;;;;22.04;62.83;100145.34;2076143;28;20031;-70
2021/07/17 00:29:51;;;;;;;;;;;;;;;22.02;62.74;100151.03;2072321;28;20453;-69
2021/07/17 00:30:51;;;;;;;;;;;;;;;22.04;62.78;100153.59;2077753;28;19917;-69
2021/07/17 00:31:51;;;;;;;;;;;;;;;22.03;63.10;100147.25;2074253;28;20110;-69
2021/07/17 00:32:52;;;;;;;;;;;;;;;22.03;62.99;100152.75;2077443;28;19916;-70
2021/07/17 00:33:52;;;;;;;;;;;;;;;22.04;62.82;100145.34;2074335;28;19913;-70
2021/07/17 00:34:52;;;;;;;;;;;;;;;22.03;62.76;100146.41;2074512;28;19952;-70
2021/07/17 00:35:53;;;;;;;;;;;;;;;22.03;62.79;100152.75;2077861;28;20410;-70
2021/07/17 00:36:53;;;;;;;;;;;;;;;22.03;63.03;100146.41;2076242;28;20487;-68
2021/07/17 00:37:53;;;;;;;;;;;;;;;22.02;62.74;100151.03;2076311;28;19951;-70
2021/07/17 00:38:54;;;;;;;;;;;;;;;22.03;62.98;100151.88;2077430;28;19931;-69
2021/07/17 00:39:54;;;;;;;;;;;;;;;22.04;62.90;100145.34;2076039;28;20532;-70
2021/07/17 00:40:54;;;;;;;;;;;;;;;22.04;62.77;100153.59;2077448;28;20041;-70
2021/07/17 00:41:55;;;;;;;;;;;;;;;22.03;62.95;100152.75;2074524;28;20045;-69
2021/07/17 00:42:55;;;;;;;;;;;;;;;22.04;62.81;100150.84;2077922;28;19979;-69
2021/07/17 00:43:56;;;;;;;;;;;;;;;22.03;62.76;100146.41;2073530;28;19944;-69
2021/07/17 00:44:56;;;;;;;;;;;;;;;22.03;62.81;100151.88;2075882;28;19982;-69
2021/07/17 00:45:56;;;;;;;;;;;;;;;22.03;62.83;100151.88;2076578;28;20003;-69
2021/07/17 00:46:58;;;;;;;;;;;;;;;22.03;62.75;100150.00;2077865;28;19913;-69
2021/07/17 00:47:59;;;;;;;;;;;;;;;22.02;62.76;100141.91;2073376;28;19971;-69
2021/07/17 00:48:59;;;;;;;;;;;;;;;22.04;62.75;100148.09;2077552;28;19978;-70
2021/07/17 00:49:59;;;;;;;;;;;;;;;22.02;62.88;100145.53;2075362;28;19952;-70
2021/07/17 00:51:00;;;;;;;;;;;;;;;22.03;62.83;100151.88;2077774;28;20638;-69
2021/07/17 00:52:00;;;;;;;;;;;;;;;22.02;62.85;100148.28;2086258;28;20287;-69
2021/07/17 00:53:00;;;;;;;;;;;;;;;22.02;62.82;100139.16;2079687;28;20099;-69
2021/07/17 00:54:02;;;;;;;;;;;;;;;22.02;62.99;100150.16;2077667;28;19917;-69
2021/07/17 00:55:03;;;;;;;;;;;;;;;22.02;62.93;100150.16;2074864;28;19917;-70
2021/07/17 00:56:03;;;;;;;;;;;;;;;22.03;62.86;100152.75;2077772;28;19924;-69
2021/07/17 00:57:05;;;;;;;;;;;;;;;22.02;62.97;100144.66;2076238;28;19921;-69
2021/07/17 00:58:05;;;;;;;;;;;;;;;22.03;62.88;100149.16;2079688;28;20297;-69
2021/07/17 00:59:07;;;;;;;;;;;;;;;22.01;62.96;100149.31;2075673;28;19916;-69
2021/07/17 01:00:08;;;;;;;;;;;;;;;22.02;62.72;100151.03;2077459;28;19945;-69
2021/07/17 01:01:09;;;;;;;;;;;;;;;22.03;62.91;100151.88;2084836;28;19912;-69
2021/07/17 01:02:11;;;;;;;;;;;;;;;22.03;62.94;100151.88;2075411;28;19962;-69
2021/07/17 01:03:13;;;;;;;;;;;;;;;22.04;62.96;100153.59;2075977;28;20517;-70
2021/07/17 01:04:14;;;;;;;;;;;;;;;22.02;63.01;100151.03;2077359;28;19978;-69
2021/07/17 01:05:15;;;;;;;;;;;;;;;22.03;62.64;100157.38;2074789;28;20004;-69
2021/07/17 01:06:15;;;;;;;;;;;;;;;22.03;62.86;100155.47;2077615;28;20698;-69
2021/07/17 01:07:17;;;;;;;;;;;;;;;22.03;62.80;100158.22;2075333;28;19917;-68
2021/07/17 01:08:19;;;;;;;;;;;;;;;22.03;62.90;100154.63;2077357;28;19920;-68
2021/07/17 01:09:19;;;;;;;;;;;;;;;22.03;62.78;100155.47;2077556;28;20342;-69
2021/07/17 01:10:20;;;;;;;;;;;;;;;22.02;62.85;100159.28;2070625;28;19920;-69
2021/07/17 01:11:20;;;;;;;;;;;;;;;22.03;62.93;100155.47;2077015;28;19916;-69
2021/07/17 01:12:21;;;;;;;;;;;;;;;22.02;62.83;100159.28;2076666;28;20397;-69
2021/07/17 01:13:21;;;;;;;;;;;;;;;22.03;62.81;100162.88;2077277;28;19986;-70
2021/07/17 01:14:21;;;;;;;;;;;;;;;22.01;62.79;100160.28;2072475;28;19917;-69
2021/07/17 01:15:22;;;;;;;;;;;;;;;22.01;62.89;100157.53;2079225;28;20370;-69
2021/07/17 01:16:22;;;;;;;;;;;;;;;22.01;63.01;100152.03;2077446;28;19938;-68
2021/07/17 01:17:22;;;;;;;;;;;;;;;22.00;62.90;100153.09;2076700;28;19940;-70
2021/07/17 01:18:23;;;;;;;;;;;;;;;22.03;62.73;100162.88;2076820;28;19915;-69
2021/07/17 01:19:24;;;;;;;;;;;;;;;22.02;62.76;100161.13;2075440;28;19978;-70
2021/07/17 01:20:24;;;;;;;;;;;;;;;22.02;62.81;100164.75;2075752;28;19917;-70
2021/07/17 01:21:26;;;;;;;;;;;;;;;22.02;62.81;100169.38;2077129;28;19917;-70
2021/07/17 01:22:27;;;;;;;;;;;;;;;22.02;62.97;100161.13;2075311;28;20524;-69
2021/07/17 01:23:27;;;;;;;;;;;;;;;22.02;62.84;100163.88;2076977;28;19916;-69
2021/07/17 01:24:27;;;;;;;;;;;;;;;22.01;62.77;100165.75;2075962;28;19917;-70
2021/07/17 01:25:30;;;;;;;;;;;;;;;22.01;62.83;100163.03;2076575;28;19924;-71
2021/07/17 01:26:31;;;;;;;;;;;;;;;22.02;62.87;100166.63;2077872;28;19917;-70
2021/07/17 01:27:31;;;;;;;;;;;;;;;22.00;62.86;100163.22;2075906;28;19963;-70
2021/07/17 01:28:32;;;;;;;;;;;;;;;22.01;62.90;100159.44;2077733;28;19917;-70
2021/07/17 01:29:33;;;;;;;;;;;;;;;22.01;62.88;100159.44;2075597;28;19917;-71
2021/07/17 01:30:35;;;;;;;;;;;;;;;22.00;62.84;100155.81;2076435;28;19916;-70
2021/07/17 01:31:35;;;;;;;;;;;;;;;22.02;63.01;100158.38;2077092;28;19963;-71
2021/07/17 01:32:35;;;;;;;;;;;;;;;22.01;62.91;100153.94;2075368;28;19924;-70
2021/07/17 01:33:36;;;;;;;;;;;;;;;22.01;63.00;100156.69;2072297;28;19921;-71
2021/07/17 01:34:36;;;;;;;;;;;;;;;22.01;62.92;100159.44;2075837;28;19917;-71
2021/07/17 01:35:37;;;;;;;;;;;;;;;22.01;63.02;100156.69;2077302;28;19931;-70
2021/07/17 01:36:38;;;;;;;;;;;;;;;22.00;63.12;100157.72;2076854;28;19927;-71
2021/07/17 01:37:38;;;;;;;;;;;;;;;22.01;62.81;100159.44;2076016;28;19924;-70
2021/07/17 01:38:39;;;;;;;;;;;;;;;22.01;62.98;100160.28;2075011;28;20390;-70
2021/07/17 01:39:39;;;;;;;;;;;;;;;22.00;62.82;100152.22;2075975;28;19916;-70
2021/07/17 01:40:40;;;;;;;;;;;;;;;22.00;62.86;100144.00;2077767;28;19997;-71
2021/07/17 01:41:40;;;;;;;;;;;;;;;21.99;62.80;100134.88;2075797;28;19996;-70
2021/07/17 01:42:40;;;;;;;;;;;;;;;22.01;62.76;100134.72;2080935;28;20419;-71
2021/07/17 01:43:41;;;;;;;;;;;;;;;22.00;62.93;100135.75;2078418;28;20375;-70
2021/07/17 01:44:45;;;;;;;;;;;;;;;22.01;63.02;100140.22;2075285;28;20276;-70
2021/07/17 01:45:45;;;;;;;;;;;;;;;22.00;62.92;100138.50;2076858;28;20019;-71
2021/07/17 01:46:46;;;;;;;;;;;;;;;22.01;62.96;100142.97;2075131;28;19972;-71
2021/07/17 01:47:46;;;;;;;;;;;;;;;21.99;62.84;100132.13;2075895;28;19959;-71
2021/07/17 01:48:56;;;;;;;;;;;;;;;22.01;63.01;100137.47;2085629;28;19960;-70
2021/07/17 01:49:58;;;;;;;;;;;;;;;22.00;63.17;100139.34;2074735;28;20761;-70
2021/07/17 01:50:58;;;;;;;;;;;;;;;22.00;62.85;100135.75;2076763;28;20101;-71
2021/07/17 01:51:58;;;;;;;;;;;;;;;22.00;62.82;100130.28;2076514;28;19948;-71
2021/07/17 01:52:59;;;;;;;;;;;;;;;21.99;62.90;100125.78;2077762;28;19905;-70
2021/07/17 01:54:00;;;;;;;;;;;;;;;21.98;63.03;100135.91;2073771;28;19974;-71
2021/07/17 01:55:01;;;;;;;;;;;;;;;21.99;63.06;100128.53;2077880;28;19970;-70
2021/07/17 01:56:01;;;;;;;;;;;;;;;21.98;62.85;100127.69;2076916;28;20007;-70
2021/07/17 01:57:02;;;;;;;;;;;;;;;22.00;62.85;100125.63;2076142;28;19936;-70
2021/07/17 01:58:03;;;;;;;;;;;;;;;22.00;62.96;100127.53;2069424;28;19917;-71
2021/07/17 01:59:03;;;;;;;;;;;;;;;21.99;62.94;100134.88;2071809;28;20011;-70
2021/07/17 02:00:04;;;;;;;;;;;;;;;22.00;63.00;100133.00;2077548;28;19994;-70
2021/07/17 02:01:05;;;;;;;;;;;;;;;22.00;62.71;100131.13;2076188;28;19995;-71
2021/07/17 02:02:08;;;;;;;;;;;;;;;21.99;62.96;100128.53;2076374;28;19917;-70
2021/07/17 02:03:08;;;;;;;;;;;;;;;22.00;63.00;100127.53;2077331;28;19925;-70
2021/07/17 02:04:09;;;;;;;;;;;;;;;21.99;63.01;100134.03;2074795;28;19954;-71
2021/07/17 02:05:09;;;;;;;;;;;;;;;21.99;63.07;100125.78;2075840;28;19909;-70
2021/07/17 02:06:10;;;;;;;;;;;;;;;21.98;62.96;100126.84;2076744;28;19916;-70
2021/07/17 02:07:10;;;;;;;;;;;;;;;21.99;62.93;100131.28;2078447;28;19917;-71
2021/07/17 02:08:11;;;;;;;;;;;;;;;21.99;62.96;100123.03;2074901;28;19917;-70
2021/07/17 02:09:11;;;;;;;;;;;;;;;21.99;62.86;100121.16;2071216;28;19928;-70
2021/07/17 02:10:14;;;;;;;;;;;;;;;21.98;62.97;100126.84;2076983;28;20041;-70
2021/07/17 02:11:14;;;;;;;;;;;;;;;21.99;62.95;100128.53;2075883;28;19917;-70
2021/07/17 02:12:15;;;;;;;;;;;;;;;21.99;62.92;100129.38;2076684;28;20693;-70
2021/07/17 02:13:15;;;;;;;;;;;;;;;21.99;63.07;100121.16;2074994;28;19979;-71
2021/07/17 02:14:16;;;;;;;;;;;;;;;21.99;63.06;100123.03;2076015;28;20361;-70
2021/07/17 02:15:16;;;;;;;;;;;;;;;22.00;62.91;100127.53;2077472;28;19920;-70
2021/07/17 02:16:18;;;;;;;;;;;;;;;21.98;63.00;100126.84;2074599;28;19939;-70
2021/07/17 02:17:18;;;;;;;;;;;;;;;21.98;62.96;100126.84;2075345;28;19929;-71
2021/07/17 02:18:23;;;;;;;;;;;;;;;21.98;62.91;100121.34;2075848;28;19909;-70
2021/07/17 02:19:24;;;;;;;;;;;;;;;21.98;62.88;100121.34;2074003;28;20666;-71
2021/07/17 02:20:24;;;;;;;;;;;;;;;21.98;63.16;100122.19;2076049;28;20883;-70
2021/07/17 02:21:25;;;;;;;;;;;;;;;21.98;62.95;100115.84;2076622;28;20708;-70
2021/07/17 02:22:25;;;;;;;;;;;;;;;21.99;62.99;100117.56;2076318;28;19921;-69
2021/07/17 02:23:26;;;;;;;;;;;;;;;21.98;62.94;100116.69;2075952;28;20004;-70
2021/07/17 02:24:26;;;;;;;;;;;;;;;21.97;63.09;100117.72;2076486;28;19925;-70
2021/07/17 02:25:27;;;;;;;;;;;;;;;21.98;63.01;100116.69;2076644;28;19974;-70
2021/07/17 02:26:27;;;;;;;;;;;;;;;21.99;62.96;100115.66;2076458;28;19916;-71
2021/07/17 02:27:27;;;;;;;;;;;;;;;22.00;62.72;100116.56;2075006;28;20426;-70
2021/07/17 02:28:28;;;;;;;;;;;;;;;21.98;62.91;100115.84;2076801;28;19923;-70
2021/07/17 02:29:28;;;;;;;;;;;;;;;22.00;63.15;100116.56;2079998;28;19956;-70
2021/07/17 02:30:29;;;;;;;;;;;;;;;21.98;63.03;100115.84;2075486;28;19916;-70
2021/07/17 02:31:30;;;;;;;;;;;;;;;21.98;63.07;100105.72;2071870;28;19921;-69
2021/07/17 02:32:30;;;;;;;;;;;;;;;21.98;63.20;100104.88;2075685;28;19962;-70
2021/07/17 02:33:30;;;;;;;;;;;;;;;21.98;62.95;100099.38;2075534;28;19962;-70
2021/07/17 02:34:31;;;;;;;;;;;;;;;21.97;63.13;100100.41;2076705;28;19924;-70
2021/07/17 02:35:31;;;;;;;;;;;;;;;21.98;63.07;100105.72;2076294;28;20383;-69
2021/07/17 02:36:32;;;;;;;;;;;;;;;21.97;63.22;100100.41;2075105;28;19920;-69
2021/07/17 02:37:32;;;;;;;;;;;;;;;21.97;63.12;100103.13;2076054;28;19924;-69
2021/07/17 02:38:32;;;;;;;;;;;;;;;21.98;63.01;100104.88;2076590;28;20396;-70
2021/07/17 02:39:33;;;;;;;;;;;;;;;21.97;63.03;100097.66;2075184;28;19920;-69
2021/07/17 02:40:33;;;;;;;;;;;;;;;21.97;63.03;100104.00;2075143;28;19923;-69
2021/07/17 02:41:34;;;;;;;;;;;;;;;21.97;62.97;100098.50;2075282;28;20396;-70
2021/07/17 02:42:34;;;;;;;;;;;;;;;21.97;63.01;100097.66;2076921;28;19925;-70
2021/07/17 02:43:35;;;;;;;;;;;;;;;21.97;63.03;100100.41;2077351;28;20023;-69
2021/07/17 02:44:35;;;;;;;;;;;;;;;21.96;63.14;100090.47;2074804;28;20098;-68
2021/07/17 02:45:36;;;;;;;;;;;;;;;21.97;63.06;100100.41;2076950;28;19923;-69
2021/07/17 02:46:36;;;;;;;;;;;;;;;21.97;63.10;100097.66;2075958;28;19970;-69
2021/07/17 02:47:37;;;;;;;;;;;;;;;21.98;63.06;100099.38;2075716;28;20493;-69
2021/07/17 02:48:37;;;;;;;;;;;;;;;21.96;63.03;100094.06;2075929;28;19924;-70
2021/07/17 02:49:37;;;;;;;;;;;;;;;21.97;62.94;100092.16;2076093;28;19923;-69
2021/07/17 02:50:38;;;;;;;;;;;;;;;21.96;63.17;100091.31;2076159;28;19920;-69
2021/07/17 02:51:38;;;;;;;;;;;;;;;21.96;63.11;100091.31;2075446;28;19982;-69
2021/07/17 02:52:38;;;;;;;;;;;;;;;21.96;63.03;100087.72;2076111;28;20002;-69
2021/07/17 02:53:38;;;;;;;;;;;;;;;21.97;62.98;100083.94;2075812;28;19917;-69
2021/07/17 02:54:39;;;;;;;;;;;;;;;21.96;62.93;100088.56;2076108;28;20398;-70
2021/07/17 02:55:39;;;;;;;;;;;;;;;21.96;62.89;100079.47;2076263;28;19920;-70
2021/07/17 02:56:39;;;;;;;;;;;;;;;21.96;62.94;100084.97;2074734;28;19920;-69
2021/07/17 02:57:40;;;;;;;;;;;;;;;21.96;63.02;100084.97;2075758;28;19933;-70
2021/07/17 02:58:40;;;;;;;;;;;;;;;21.97;62.82;100089.41;2080412;28;19923;-69
2021/07/17 02:59:41;;;;;;;;;;;;;;;21.96;63.12;100084.97;2079102;28;20011;-69
2021/07/17 03:00:41;;;;;;;;;;;;;;;21.97;62.85;100089.41;2077134;28;19948;-69
2021/07/17 03:01:41;;;;;;;;;;;;;;;21.96;63.04;100079.47;2074558;28;19920;-69
2021/07/17 03:02:42;;;;;;;;;;;;;;;21.96;62.92;100084.97;2076404;28;19920;-70
2021/07/17 03:03:42;;;;;;;;;;;;;;;21.96;62.95;100079.47;2076463;28;19916;-70
2021/07/17 03:04:42;;;;;;;;;;;;;;;21.95;62.97;100078.63;2075084;28;19917;-69
2021/07/17 03:05:43;;;;;;;;;;;;;;;21.95;63.15;100077.75;2076751;28;20674;-69
2021/07/17 03:06:43;;;;;;;;;;;;;;;21.95;62.79;100084.13;2075438;28;20565;-69
2021/07/17 03:07:43;;;;;;;;;;;;;;;21.95;62.90;100084.13;2077001;28;19924;-70
2021/07/17 03:08:44;;;;;;;;;;;;;;;21.95;63.07;100081.38;2074763;28;20011;-69
2021/07/17 03:09:44;;;;;;;;;;;;;;;21.97;63.01;100081.19;2075840;28;19932;-70
2021/07/17 03:10:44;;;;;;;;;;;;;;;21.97;63.03;100086.66;2075813;28;19920;-69
2021/07/17 03:11:45;;;;;;;;;;;;;;;21.97;62.96;100086.66;2075771;28;19913;-69
2021/07/17 03:12:45;;;;;;;;;;;;;;;21.95;63.07;100084.13;2076002;28;19917;-69
2021/07/17 03:13:45;;;;;;;;;;;;;;;21.95;63.08;100081.38;2075095;28;19909;-69
2021/07/17 03:14:46;;;;;;;;;;;;;;;21.96;63.04;100087.72;2076590;28;19920;-69
2021/07/17 03:15:48;;;;;;;;;;;;;;;21.97;62.88;100092.16;2076409;28;19917;-70
2021/07/17 03:16:48;;;;;;;;;;;;;;;21.96;63.16;100080.34;2076002;28;19928;-70
2021/07/17 03:17:50;;;;;;;;;;;;;;;21.95;63.06;100080.50;2078578;28;19916;-69
2021/07/17 03:18:50;;;;;;;;;;;;;;;21.95;62.90;100075.88;2073613;28;20023;-70
2021/07/17 03:19:50;;;;;;;;;;;;;;;21.95;62.89;100070.41;2075658;28;19917;-69
2021/07/17 03:20:50;;;;;;;;;;;;;;;21.96;63.06;100074.00;2076628;28;19916;-69
2021/07/17 03:21:51;;;;;;;;;;;;;;;21.96;63.04;100076.72;2075903;28;20703;-69
2021/07/17 03:22:51;;;;;;;;;;;;;;;21.95;62.86;100075.00;2076104;28;20383;-69
2021/07/17 03:23:51;;;;;;;;;;;;;;;21.93;63.24;100064.22;2074906;28;20361;-70
2021/07/17 03:24:52;;;;;;;;;;;;;;;21.94;62.96;100059.56;2075249;28;20788;-69
2021/07/17 03:25:52;;;;;;;;;;;;;;;21.94;63.01;100057.69;2075803;28;19998;-70
2021/07/17 03:26:52;;;;;;;;;;;;;;;21.94;63.03;100054.94;2075106;28;19917;-69
2021/07/17 03:27:53;;;;;;;;;;;;;;;21.95;62.95;100061.28;2079057;28;20507;-69
2021/07/17 03:28:53;;;;;;;;;;;;;;;21.93;62.86;100066.09;2075806;28;20460;-69
2021/07/17 03:29:53;;;;;;;;;;;;;;;21.93;62.92;100060.63;2069387;28;20348;-70
2021/07/17 03:30:54;;;;;;;;;;;;;;;21.93;62.92;100064.22;2071760;28;20396;-71
2021/07/17 03:31:54;;;;;;;;;;;;;;;21.93;62.90;100064.22;2074447;28;19917;-70
2021/07/17 03:32:54;;;;;;;;;;;;;;;21.93;62.99;100066.09;2068843;28;19923;-70
2021/07/17 03:33:55;;;;;;;;;;;;;;;21.94;63.25;100070.56;2071706;28;19948;-71
2021/07/17 03:34:55;;;;;;;;;;;;;;;21.93;62.89;100068.84;2076920;28;19917;-70
2021/07/17 03:35:59;;;;;;;;;;;;;;;21.93;63.13;100071.59;2073863;28;19924;-70
2021/07/17 03:36:59;;;;;;;;;;;;;;;21.94;62.93;100070.56;2077234;28;19982;-71
2021/07/17 03:37:59;;;;;;;;;;;;;;;21.92;62.95;100067.97;2075389;28;20009;-70
2021/07/17 03:39:00;;;;;;;;;;;;;;;21.93;63.08;100068.84;2076213;28;19913;-70
2021/07/17 03:40:00;;;;;;;;;;;;;;;21.92;62.86;100073.44;2077337;28;19955;-71
2021/07/17 03:41:00;;;;;;;;;;;;;;;21.92;63.00;100067.13;2073082;28;20361;-71
2021/07/17 03:42:01;;;;;;;;;;;;;;;21.93;63.02;100063.34;2076415;28;19994;-71
2021/07/17 03:43:01;;;;;;;;;;;;;;;21.93;62.97;100068.84;2076423;28;20075;-71
2021/07/17 03:44:02;;;;;;;;;;;;;;;21.92;62.94;100072.59;2075472;28;20477;-71
2021/07/17 03:45:02;;;;;;;;;;;;;;;21.93;63.13;100077.09;2075018;28;20101;-70
2021/07/17 03:46:02;;;;;;;;;;;;;;;21.93;62.89;100079.81;2076800;28;19952;-69
2021/07/17 03:47:03;;;;;;;;;;;;;;;21.91;62.94;100073.66;2075370;28;19921;-70
2021/07/17 03:48:03;;;;;;;;;;;;;;;21.92;63.00;100084.44;2076459;28;20011;-71
2021/07/17 03:49:04;;;;;;;;;;;;;;;21.93;63.12;100068.84;2074647;28;20307;-70
2021/07/17 03:50:05;;;;;;;;;;;;;;;21.92;62.89;100072.59;2075035;28;19948;-70
2021/07/17 03:51:06;;;;;;;;;;;;;;;21.90;62.96;100075.53;2076852;28;19917;-71
2021/07/17 03:52:06;;;;;;;;;;;;;;;21.92;62.92;100078.09;2074847;28;19947;-70
2021/07/17 03:53:07;;;;;;;;;;;;;;;21.90;63.02;100083.75;2077181;28;19917;-71
2021/07/17 03:54:07;;;;;;;;;;;;;;;21.92;63.07;100083.56;2074280;28;19923;-70
2021/07/17 03:55:08;;;;;;;;;;;;;;;21.92;63.10;100083.56;2074277;28;20485;-70
2021/07/17 03:56:08;;;;;;;;;;;;;;;21.92;62.84;100078.09;2076572;28;19917;-70
2021/07/17 03:57:08;;;;;;;;;;;;;;;21.94;62.96;100087.03;2074053;28;20299;-71
2021/07/17 03:58:09;;;;;;;;;;;;;;;21.93;62.92;100088.06;2077025;28;20494;-70
2021/07/17 03:59:09;;;;;;;;;;;;;;;21.92;63.05;100081.69;2074243;28;20349;-71
2021/07/17 04:00:09;;;;;;;;;;;;;;;21.92;62.81;100083.56;2075122;28;19915;-71
2021/07/17 04:01:10;;;;;;;;;;;;;;;21.92;62.94;100083.56;2075824;28;19948;-70
2021/07/17 04:02:10;;;;;;;;;;;;;;;21.93;63.07;100082.56;2075444;28;19909;-70
2021/07/17 04:03:10;;;;;;;;;;;;;;;21.93;62.83;100075.19;2077153;28;19927;-70
2021/07/17 04:04:13;;;;;;;;;;;;;;;21.90;63.12;100072.78;2075998;28;19917;-70
2021/07/17 04:05:14;;;;;;;;;;;;;;;21.92;63.03;100073.44;2077965;28;20488;-71
2021/07/17 04:06:14;;;;;;;;;;;;;;;21.92;62.85;100069.84;2076277;28;20401;-70
2021/07/17 04:07:15;;;;;;;;;;;;;;;21.91;63.18;100077.25;2081131;28;20013;-71
2021/07/17 04:08:15;;;;;;;;;;;;;;;21.90;62.94;100075.53;2077468;28;20457;-70
2021/07/17 04:09:15;;;;;;;;;;;;;;;21.91;63.05;100076.38;2077054;28;19909;-71
2021/07/17 04:10:16;;;;;;;;;;;;;;;21.92;62.83;100069.84;2074486;28;20254;-70
2021/07/17 04:11:16;;;;;;;;;;;;;;;21.90;63.05;100069.16;2074916;28;19989;-70
2021/07/17 04:12:16;;;;;;;;;;;;;;;21.92;62.98;100080.84;2076131;28;19940;-71
2021/07/17 04:13:16;;;;;;;;;;;;;;;21.91;63.11;100081.88;2076913;28;19915;-71
2021/07/17 04:14:17;;;;;;;;;;;;;;;21.90;63.08;100080.13;2077967;28;21086;-70
2021/07/17 04:15:17;;;;;;;;;;;;;;;21.89;63.13;100067.47;2076715;28;19917;-71
2021/07/17 04:16:17;;;;;;;;;;;;;;;21.89;62.95;100072.94;2077500;28;19921;-71
2021/07/17 04:17:18;;;;;;;;;;;;;;;21.90;63.13;100071.91;2076165;28;19921;-69
2021/07/17 04:18:18;;;;;;;;;;;;;;;21.89;62.83;100070.19;2076482;28;19916;-71
2021/07/17 04:19:18;;;;;;;;;;;;;;;21.89;63.10;100071.06;2076858;28;19916;-70
2021/07/17 04:20:19;;;;;;;;;;;;;;;21.90;62.97;100069.16;2073218;28;20015;-70
2021/07/17 04:21:19;;;;;;;;;;;;;;;21.90;62.89;100074.66;2074779;28;20249;-71
2021/07/17 04:22:19;;;;;;;;;;;;;;;21.91;62.95;100076.38;2077092;28;19950;-70
2021/07/17 04:23:19;;;;;;;;;;;;;;;21.90;62.93;100075.53;2077929;28;19966;-71
2021/07/17 04:24:20;;;;;;;;;;;;;;;21.90;62.81;100072.78;2076668;28;20293;-70
2021/07/17 04:25:20;;;;;;;;;;;;;;;21.90;63.13;100071.91;2077345;28;20843;-71
2021/07/17 04:26:20;;;;;;;;;;;;;;;21.90;62.88;100077.41;2077353;28;20344;-70
2021/07/17 04:27:21;;;;;;;;;;;;;;;21.89;63.11;100073.81;2076117;28;20019;-70
2021/07/17 04:28:21;;;;;;;;;;;;;;;21.90;62.94;100077.41;2076766;28;19917;-70
2021/07/17 04:29:21;;;;;;;;;;;;;;;21.89;63.04;100082.03;2076370;28;19916;-70
2021/07/17 04:30:21;;;;;;;;;;;;;;;21.90;63.19;100085.63;2075578;28;20230;-70
2021/07/17 04:31:22;;;;;;;;;;;;;;;21.90;62.91;100085.63;2076390;28;19917;-70
2021/07/17 04:32:22;;;;;;;;;;;;;;;21.91;62.96;100092.84;2078135;28;19958;-70
2021/07/17 04:33:22;;;;;;;;;;;;;;;21.90;63.06;100093.88;2075170;28;19917;-70
2021/07/17 04:34:23;;;;;;;;;;;;;;;21.90;62.96;100097.50;2077848;28;19966;-70
2021/07/17 04:35:23;;;;;;;;;;;;;;;21.89;63.13;100092.16;2075604;28;19909;-70
2021/07/17 04:36:24;;;;;;;;;;;;;;;21.90;62.98;100096.59;2076412;28;20383;-70
2021/07/17 04:37:24;;;;;;;;;;;;;;;21.89;63.18;100098.50;2075877;28;19920;-70
2021/07/17 04:38:24;;;;;;;;;;;;;;;21.89;63.09;100094.91;2076751;28;19975;-70
2021/07/17 04:39:25;;;;;;;;;;;;;;;21.89;62.84;100106.72;2077529;28;19916;-70
2021/07/17 04:40:25;;;;;;;;;;;;;;;21.90;63.10;100100.22;2076544;28;19923;-70
2021/07/17 04:41:25;;;;;;;;;;;;;;;21.90;62.92;100102.09;2075837;28;20057;-70
2021/07/17 04:42:27;;;;;;;;;;;;;;;21.90;63.13;100113.06;2076898;28;19960;-70
2021/07/17 04:43:27;;;;;;;;;;;;;;;21.89;63.05;100106.72;2079283;28;19921;-70
2021/07/17 04:44:27;;;;;;;;;;;;;;;21.89;62.91;100106.72;2075886;28;19991;-70
2021/07/17 04:45:27;;;;;;;;;;;;;;;21.89;62.89;100114.97;2075602;28;19964;-69
2021/07/17 04:46:28;;;;;;;;;;;;;;;21.89;62.92;100105.88;2077103;28;20665;-68
2021/07/17 04:47:28;;;;;;;;;;;;;;;21.89;63.11;100105.88;2075175;28;20969;-69
2021/07/17 04:48:28;;;;;;;;;;;;;;;21.88;62.95;100106.88;2076381;28;19913;-70
2021/07/17 04:49:29;;;;;;;;;;;;;;;21.89;63.22;100111.38;2077097;28;20304;-70
2021/07/17 04:50:30;;;;;;;;;;;;;;;21.87;63.14;100117.00;2076502;28;19913;-69
2021/07/17 04:51:30;;;;;;;;;;;;;;;21.87;62.97;100107.94;2075045;28;20007;-70
2021/07/17 04:52:30;;;;;;;;;;;;;;;21.87;63.25;100111.53;2075713;28;19925;-69
2021/07/17 04:53:31;;;;;;;;;;;;;;;21.88;63.17;100115.13;2075864;28;19959;-69
2021/07/17 04:54:31;;;;;;;;;;;;;;;21.87;63.33;100107.94;2076517;28;19920;-69
2021/07/17 04:55:32;;;;;;;;;;;;;;;21.88;62.88;100113.25;2076962;28;19917;-70
2021/07/17 04:56:32;;;;;;;;;;;;;;;21.88;63.07;100115.13;2076412;28;19917;-70
2021/07/17 04:57:32;;;;;;;;;;;;;;;21.87;63.12;100114.25;2077071;28;19928;-70
2021/07/17 04:58:33;;;;;;;;;;;;;;;21.87;63.08;100107.94;2075765;28;20303;-70
2021/07/17 04:59:33;;;;;;;;;;;;;;;21.88;62.97;100115.13;2076984;28;20387;-71
2021/07/17 05:00:33;;;;;;;;;;;;;;;21.88;62.98;100115.13;2077733;28;19928;-70
2021/07/17 05:01:34;;;;;;;;;;;;;;;21.88;63.07;100112.38;2075548;28;19913;-70
2021/07/17 05:02:47;;;;;;;;;;;;;;;21.87;63.09;100110.66;2076707;28;20467;-71
2021/07/17 05:03:48;;;;;;;;;;;;;;;21.86;63.12;100111.72;2076899;28;20589;-70
2021/07/17 05:04:48;;;;;;;;;;;;;;;21.86;63.06;100111.72;2078206;28;19952;-70
2021/07/17 05:05:48;;;;;;;;;;;;;;;21.87;63.05;100107.94;2074058;28;19921;-71
2021/07/17 05:06:49;;;;;;;;;;;;;;;21.86;62.91;100111.72;2076083;28;19916;-71
2021/07/17 05:07:50;;;;;;;;;;;;;;;21.86;63.16;100108.97;2075883;28;19966;-70
2021/07/17 05:08:50;;;;;;;;;;;;;;;21.84;63.23;100107.22;2077751;28;19916;-69
2021/07/17 05:09:50;;;;;;;;;;;;;;;21.86;63.20;100108.97;2075874;28;19916;-69
2021/07/17 05:10:50;;;;;;;;;;;;;;;21.84;63.16;100109.97;2077181;28;20432;-70